createdAt,value
2022-08-25T00:00:33.002Z,98766.97
2022-08-25T00:01:39.871Z,98762.53
2022-08-25T00:03:05.280Z,98768.44
2022-08-25T00:04:15.009Z,98767.44
2022-08-25T00:05:36.602Z,98759.69
2022-08-25T00:06:48.572Z,98769.16
2022-08-25T00:09:22.832Z,98766.88
2022-08-25T00:10:38.964Z,98762.59
2022-08-25T00:11:59.980Z,98761.59
2022-08-25T00:13:05.360Z,98771.63
2022-08-25T00:14:28.797Z,98760.72
2022-08-25T00:15:41.816Z,98767.25
2022-08-25T00:17:01.281Z,98762.63
2022-08-25T00:18:11.390Z,98758.78
2022-08-25T00:19:30.960Z,98758.44
2022-08-25T00:20:35.429Z,98766.03
2022-08-25T00:21:45.101Z,98756.09
2022-08-25T00:22:53.611Z,98757.72
2022-08-25T00:24:05.723Z,98758.53
2022-08-25T00:25:16.664Z,98757.72
2022-08-25T00:26:24.846Z,98752.63
2022-08-25T00:27:31.869Z,98750.78
2022-08-25T00:28:46.007Z,98752.97
2022-08-25T00:30:30.321Z,98747.88
2022-08-25T00:31:43.288Z,98758.97
2022-08-25T00:33:16.351Z,98755.72
2022-08-25T00:34:43.493Z,98747.59
2022-08-25T00:36:00.449Z,98759.81
2022-08-25T00:37:39.899Z,98750.41
2022-08-25T00:39:13.312Z,98757.69
2022-08-25T00:40:18.108Z,98752.41
2022-08-25T00:41:52.968Z,98756.88
2022-08-25T00:43:03.274Z,98753.22
2022-08-25T00:44:11.010Z,98753.06
2022-08-25T00:45:45.679Z,98755.50
2022-08-25T00:46:53.419Z,98751.22
2022-08-25T00:48:50.190Z,98750.22
2022-08-25T00:50:26.581Z,98749.41
2022-08-25T00:51:41.686Z,98741.47
2022-08-25T00:53:00.896Z,98752.88
2022-08-25T00:54:36.644Z,98750.41
2022-08-25T00:55:49.544Z,98746.94
2022-08-25T00:56:55.540Z,98749.59
2022-08-25T00:58:32.815Z,98747.78
2022-08-25T00:59:44.858Z,98751.22
2022-08-25T01:01:13.541Z,98747.94
2022-08-25T01:02:19.441Z,98749.59
2022-08-25T01:03:35.715Z,98747.78
2022-08-25T01:04:51.782Z,98751.22
2022-08-25T01:05:57.501Z,98745.75
2022-08-25T01:07:17.464Z,98748.22
2022-08-25T01:08:29.737Z,98745.56
2022-08-25T01:11:47.172Z,98741.81
2022-08-25T01:12:59.670Z,98744.66
2022-08-25T01:14:10.531Z,98748.47
2022-08-25T01:15:38.729Z,98741.91
2022-08-25T01:16:47.114Z,98752.50
2022-08-25T01:18:17.290Z,98747.34
2022-08-25T01:20:11.060Z,98745.72
2022-08-25T01:21:18.801Z,98747.53
2022-08-25T01:22:55.401Z,98749.19
2022-08-25T01:24:04.816Z,98751.00
2022-08-25T01:25:24.209Z,98747.19
2022-08-25T01:27:07.857Z,98749.19
2022-08-25T01:28:30.763Z,98747.34
2022-08-25T01:30:01.679Z,98751.00
2022-08-25T01:31:23.934Z,98751.38
2022-08-25T01:32:40.925Z,98750.38
2022-08-25T01:33:54.166Z,98749.56
2022-08-25T01:34:59.521Z,98746.91
2022-08-25T01:36:23.446Z,98746.91
2022-08-25T01:39:37.158Z,98744.44
2022-08-25T01:40:56.380Z,98737.50
2022-08-25T01:42:29.348Z,98740.97
2022-08-25T01:44:07.617Z,98741.78
2022-08-25T01:46:15.041Z,98741.78
2022-08-25T01:47:19.301Z,98745.25
2022-08-25T01:48:35.044Z,98733.50
2022-08-25T01:49:57.998Z,98734.13
2022-08-25T01:51:04.117Z,98734.63
2022-08-25T01:53:01.488Z,98733.59
2022-08-25T01:54:05.898Z,98733.59
2022-08-25T01:58:28.761Z,98729.50
2022-08-25T02:00:02.403Z,98720.91
2022-08-25T02:01:59.917Z,98727.22
2022-08-25T02:03:19.247Z,98717.31
2022-08-25T02:04:30.908Z,98722.22
2022-08-25T02:08:37.429Z,98722.59
2022-08-25T02:10:03.395Z,98722.94
2022-08-25T02:11:28.221Z,98721.28
2022-08-25T02:12:37.317Z,98729.84
2022-08-25T02:13:57.839Z,98721.75
2022-08-25T02:15:48.572Z,98720.75
2022-08-25T02:19:06.791Z,98722.03
2022-08-25T02:21:10.689Z,98728.31
2022-08-25T02:26:00.124Z,98722.75
2022-08-25T02:27:13.768Z,98718.13
2022-08-25T02:29:10.959Z,98719.94
2022-08-25T02:31:59.207Z,98712.00
2022-08-25T02:33:22.195Z,98713.66
2022-08-25T02:34:52.970Z,98716.94
2022-08-25T02:36:08.307Z,98712.44
2022-08-25T02:37:48.260Z,98715.28
2022-08-25T02:39:08.901Z,98710.00
2022-08-25T02:41:13.960Z,98705.72
2022-08-25T02:42:40.289Z,98710.00
2022-08-25T02:43:52.562Z,98710.00
2022-08-25T02:46:29.336Z,98710.34
2022-08-25T02:48:15.460Z,98714.72
2022-08-25T02:52:58.993Z,98710.97
2022-08-25T02:57:06.838Z,98706.69
2022-08-25T02:59:00.999Z,98706.69
2022-08-25T03:00:34.939Z,98705.69
2022-08-25T03:03:43.468Z,98699.19
2022-08-25T03:04:52.113Z,98706.97
2022-08-25T03:06:40.467Z,98700.03
2022-08-25T03:08:17.469Z,98698.75
2022-08-25T03:09:21.669Z,98700.59
2022-08-25T03:10:32.884Z,98695.31
2022-08-25T03:11:42.905Z,98700.59
2022-08-25T03:12:48.199Z,98695.31
2022-08-25T03:13:51.900Z,98698.75
2022-08-25T03:15:12.956Z,98693.63
2022-08-25T03:16:17.463Z,98697.28
2022-08-25T03:17:24.548Z,98694.47
2022-08-25T03:18:34.162Z,98697.28
2022-08-25T03:19:45.580Z,98698.09
2022-08-25T03:20:49.512Z,98689.34
2022-08-25T03:21:56.737Z,98690.84
2022-08-25T03:23:48.888Z,98690.16
2022-08-25T03:25:23.471Z,98695.66
2022-08-25T03:26:45.877Z,98688.91
2022-08-25T03:27:52.265Z,98689.88
2022-08-25T03:28:56.084Z,98688.06
2022-08-25T03:30:01.111Z,98693.19
2022-08-25T03:31:05.892Z,98689.53
2022-08-25T03:32:11.764Z,98695.66
2022-08-25T03:33:15.789Z,98697.28
2022-08-25T03:34:22.110Z,98696.28
2022-08-25T03:35:26.170Z,98697.94
2022-08-25T03:36:33.834Z,98694.28
2022-08-25T03:37:37.898Z,98691.66
2022-08-25T03:38:43.158Z,98700.22
2022-08-25T03:39:48.576Z,98690.66
2022-08-25T03:40:53.827Z,98695.13
2022-08-25T03:41:57.728Z,98692.47
2022-08-25T03:43:47.592Z,98698.91
2022-08-25T03:44:53.240Z,98692.66
2022-08-25T03:45:58.359Z,98698.75
2022-08-25T03:47:02.232Z,98698.56
2022-08-25T03:48:07.090Z,98693.09
2022-08-25T03:49:13.482Z,98700.88
2022-08-25T03:50:21.118Z,98695.22
2022-08-25T03:51:27.942Z,98697.66
2022-08-25T03:52:31.556Z,98693.22
2022-08-25T03:53:36.320Z,98686.28
2022-08-25T03:54:39.919Z,98687.28
2022-08-25T03:55:46.328Z,98689.91
2022-08-25T03:56:53.471Z,98687.94
2022-08-25T03:57:58.452Z,98691.22
2022-08-25T03:59:02.028Z,98692.84
2022-08-25T04:00:08.739Z,98685.72
2022-08-25T04:01:15.884Z,98690.19
2022-08-25T04:02:23.066Z,98695.50
2022-08-25T04:03:26.548Z,98694.47
2022-08-25T04:04:31.412Z,98686.75
2022-08-25T04:05:35.553Z,98690.00
2022-08-25T04:06:40.556Z,98688.03
2022-08-25T04:07:44.180Z,98688.66
2022-08-25T04:08:49.211Z,98698.06
2022-08-25T04:09:54.533Z,98684.84
2022-08-25T04:11:04.645Z,98690.94
2022-08-25T04:12:14.419Z,98700.34
2022-08-25T04:13:19.715Z,98688.94
2022-08-25T04:14:24.024Z,98696.72
2022-08-25T04:15:30.049Z,98687.78
2022-08-25T04:16:35.365Z,98696.13
2022-08-25T04:17:41.318Z,98698.44
2022-08-25T04:18:46.561Z,98693.63
2022-08-25T04:19:50.947Z,98698.38
2022-08-25T04:21:04.157Z,98693.38
2022-08-25T04:22:07.781Z,98693.81
2022-08-25T04:23:12.660Z,98697.75
2022-08-25T04:24:16.322Z,98695.56
2022-08-25T04:25:20.931Z,98698.66
2022-08-25T04:26:27.729Z,98690.53
2022-08-25T04:27:32.517Z,98688.34
2022-08-25T04:28:36.417Z,98690.81
2022-08-25T04:29:40.909Z,98695.72
2022-08-25T04:30:45.696Z,98694.56
2022-08-25T04:31:52.162Z,98693.19
2022-08-25T04:32:55.741Z,98689.16
2022-08-25T04:34:04.421Z,98700.66
2022-08-25T04:35:19.672Z,98699.09
2022-08-25T04:36:24.059Z,98694.06
2022-08-25T04:37:28.760Z,98704.91
2022-08-25T04:38:32.698Z,98698.06
2022-08-25T04:39:37.494Z,98705.88
2022-08-25T04:40:40.822Z,98701.84
2022-08-25T04:41:46.679Z,98690.50
2022-08-25T04:42:50.027Z,98689.81
2022-08-25T04:43:56.157Z,98690.88
2022-08-25T04:45:02.208Z,98696.22
2022-08-25T04:46:08.310Z,98691.81
2022-08-25T04:47:12.188Z,98690.22
2022-08-25T04:48:16.618Z,98693.97
2022-08-25T04:49:19.941Z,98691.56
2022-08-25T04:50:24.959Z,98690.81
2022-08-25T04:51:31.082Z,98695.13
2022-08-25T04:52:35.651Z,98691.94
2022-08-25T04:53:39.698Z,98691.81
2022-08-25T04:54:44.290Z,98691.03
2022-08-25T04:55:48.880Z,98693.72
2022-08-25T04:56:58.350Z,98689.31
2022-08-25T04:58:02.202Z,98694.88
2022-08-25T04:59:09.638Z,98688.78
2022-08-25T05:00:15.147Z,98693.31
2022-08-25T05:01:21.661Z,98682.13
2022-08-25T05:02:26.729Z,98694.97
2022-08-25T05:03:31.358Z,98684.38
2022-08-25T05:04:37.164Z,98688.47
2022-08-25T05:05:40.539Z,98679.88
2022-08-25T05:06:45.419Z,98682.53
2022-08-25T05:07:48.684Z,98682.34
2022-08-25T05:08:53.070Z,98680.53
2022-08-25T05:09:56.243Z,98681.94
2022-08-25T05:11:00.740Z,98683.78
2022-08-25T05:12:10.811Z,98680.31
2022-08-25T05:13:15.778Z,98681.53
2022-08-25T05:14:26.205Z,98679.06
2022-08-25T05:15:48.199Z,98687.44
2022-08-25T05:16:55.688Z,98685.56
2022-08-25T05:17:58.874Z,98682.25
2022-08-25T05:19:02.931Z,98687.13
2022-08-25T05:20:07.879Z,98687.31
2022-08-25T05:21:15.889Z,98682.44
2022-08-25T05:22:20.138Z,98675.47
2022-08-25T05:23:24.502Z,98681.63
2022-08-25T05:24:29.858Z,98680.75
2022-08-25T05:25:33.319Z,98681.41
2022-08-25T05:26:38.612Z,98685.50
2022-08-25T05:27:44.198Z,98681.66
2022-08-25T05:28:48.910Z,98679.41
2022-08-25T05:29:52.101Z,98677.19
2022-08-25T05:30:59.852Z,98681.91
2022-08-25T05:32:03.990Z,98684.81
2022-08-25T05:33:08.846Z,98684.25
2022-08-25T05:34:12.558Z,98679.84
2022-08-25T05:35:17.009Z,98678.47
2022-08-25T05:36:22.080Z,98683.91
2022-08-25T05:37:26.629Z,98681.09
2022-08-25T05:38:29.902Z,98684.59
2022-08-25T05:39:34.468Z,98688.53
2022-08-25T05:40:38.014Z,98692.25
2022-08-25T05:41:42.520Z,98696.34
2022-08-25T05:42:47.151Z,98699.38
2022-08-25T05:43:51.596Z,98700.38
2022-08-25T05:44:54.920Z,98696.88
2022-08-25T05:45:59.918Z,98701.13
2022-08-25T05:47:03.274Z,98702.88
2022-08-25T05:48:07.661Z,98688.44
2022-08-25T05:49:11.892Z,98691.84
2022-08-25T05:50:15.306Z,98688.22
2022-08-25T05:51:20.151Z,98690.75
2022-08-25T05:52:23.608Z,98692.47
2022-08-25T05:53:28.701Z,98689.91
2022-08-25T05:54:35.378Z,98691.22
2022-08-25T05:55:38.467Z,98698.91
2022-08-25T05:56:42.570Z,98690.97
2022-08-25T05:57:47.372Z,98696.41
2022-08-25T05:58:51.762Z,98691.34
2022-08-25T05:59:54.916Z,98691.69
2022-08-25T06:01:21.463Z,98693.38
2022-08-25T06:02:44.372Z,98689.63
2022-08-25T06:03:48.021Z,98684.69
2022-08-25T06:04:52.232Z,98688.00
2022-08-25T06:05:55.530Z,98690.25
2022-08-25T06:07:10.376Z,98685.63
2022-08-25T06:08:20.349Z,98680.28
2022-08-25T06:09:25.155Z,98681.00
2022-08-25T06:10:28.550Z,98685.22
2022-08-25T06:11:32.759Z,98680.09
2022-08-25T06:12:36.660Z,98678.25
2022-08-25T06:13:42.350Z,98681.97
2022-08-25T06:14:46.783Z,98679.53
2022-08-25T06:15:51.081Z,98684.88
2022-08-25T06:16:55.451Z,98681.88
2022-08-25T06:18:00.985Z,98677.53
2022-08-25T06:19:06.389Z,98683.81
2022-08-25T06:20:12.880Z,98673.66
2022-08-25T06:21:17.119Z,98685.91
2022-08-25T06:22:21.650Z,98676.44
2022-08-25T06:23:24.859Z,98676.09
2022-08-25T06:24:30.529Z,98683.19
2022-08-25T06:25:35.511Z,98693.78
2022-08-25T06:26:38.700Z,98688.75
2022-08-25T06:27:43.078Z,98688.53
2022-08-25T06:28:48.630Z,98685.69
2022-08-25T06:29:56.038Z,98680.78
2022-08-25T06:31:01.531Z,98692.41
2022-08-25T06:32:05.113Z,98694.22
2022-08-25T06:33:09.378Z,98697.66
2022-08-25T06:34:15.003Z,98683.38
2022-08-25T06:35:20.901Z,98688.69
2022-08-25T06:36:25.090Z,98683.78
2022-08-25T06:37:28.224Z,98683.22
2022-08-25T06:38:32.490Z,98686.91
2022-08-25T06:39:36.771Z,98685.69
2022-08-25T06:40:39.823Z,98694.63
2022-08-25T06:41:44.078Z,98682.09
2022-08-25T06:42:50.308Z,98686.72
2022-08-25T06:43:57.990Z,98685.25
2022-08-25T06:45:10.791Z,98682.91
2022-08-25T06:46:16.829Z,98683.06
2022-08-25T06:47:20.386Z,98685.00
2022-08-25T06:48:24.952Z,98689.34
2022-08-25T06:49:31.820Z,98682.41
2022-08-25T06:50:40.211Z,98683.06
2022-08-25T06:51:43.420Z,98680.38
2022-08-25T06:52:47.621Z,98691.34
2022-08-25T06:53:51.138Z,98683.59
2022-08-25T06:54:55.423Z,98678.28
2022-08-25T06:56:02.261Z,98676.03
2022-08-25T06:57:09.498Z,98680.69
2022-08-25T06:58:12.651Z,98670.81
2022-08-25T06:59:18.509Z,98682.56
2022-08-25T07:00:21.763Z,98686.69
2022-08-25T07:01:27.940Z,98677.84
2022-08-25T07:02:31.144Z,98674.13
2022-08-25T07:03:39.661Z,98678.47
2022-08-25T07:04:43.950Z,98681.31
2022-08-25T07:05:52.878Z,98677.88
2022-08-25T07:06:57.159Z,98679.38
2022-08-25T07:08:01.686Z,98675.44
2022-08-25T07:09:06.666Z,98685.28
2022-08-25T07:10:11.810Z,98688.91
2022-08-25T07:11:17.560Z,98689.53
2022-08-25T07:12:24.903Z,98679.31
2022-08-25T07:13:32.040Z,98684.78
2022-08-25T07:14:38.128Z,98684.31
2022-08-25T07:15:42.712Z,98681.63
2022-08-25T07:16:50.301Z,98685.13
2022-08-25T07:17:54.879Z,98687.56
2022-08-25T07:19:00.385Z,98685.97
2022-08-25T07:20:05.211Z,98681.91
2022-08-25T07:21:09.348Z,98686.50
2022-08-25T07:22:13.643Z,98678.34
2022-08-25T07:23:16.680Z,98678.34
2022-08-25T07:24:20.902Z,98682.88
2022-08-25T07:25:24.141Z,98679.38
2022-08-25T07:26:37.833Z,98679.91
2022-08-25T07:27:42.890Z,98676.16
2022-08-25T07:28:47.445Z,98680.72
2022-08-25T07:29:54.280Z,98675.34
2022-08-25T07:31:01.286Z,98678.31
2022-08-25T07:32:07.182Z,98684.53
2022-08-25T07:33:11.817Z,98682.69
2022-08-25T07:34:35.848Z,98683.50
2022-08-25T07:35:43.780Z,98683.81
2022-08-25T07:36:48.327Z,98684.59
2022-08-25T07:37:55.900Z,98684.59
2022-08-25T07:39:04.866Z,98685.69
2022-08-25T07:40:09.591Z,98682.47
2022-08-25T07:41:14.413Z,98685.44
2022-08-25T07:42:18.121Z,98682.22
2022-08-25T07:43:23.907Z,98686.03
2022-08-25T07:44:27.901Z,98681.16
2022-08-25T07:45:35.482Z,98685.47
2022-08-25T07:46:38.849Z,98681.44
2022-08-25T07:47:43.379Z,98675.28
2022-08-25T07:48:53.095Z,98680.94
2022-08-25T07:49:57.860Z,98685.81
2022-08-25T07:51:07.706Z,98682.00
2022-08-25T07:52:12.870Z,98681.50
2022-08-25T07:53:17.660Z,98673.59
2022-08-25T07:54:21.860Z,98673.06
2022-08-25T07:55:37.459Z,98673.38
2022-08-25T07:56:43.313Z,98673.63
2022-08-25T07:57:50.921Z,98675.81
2022-08-25T07:58:59.699Z,98667.69
2022-08-25T08:00:03.289Z,98674.41
2022-08-25T08:01:18.295Z,98668.22
2022-08-25T08:02:21.744Z,98672.81
2022-08-25T08:03:45.079Z,98676.31
2022-08-25T08:04:50.234Z,98669.84
2022-08-25T08:05:56.699Z,98674.44
2022-08-25T08:06:59.857Z,98680.41
2022-08-25T08:08:05.204Z,98676.59
2022-08-25T08:09:08.495Z,98676.84
2022-08-25T08:11:54.470Z,98671.09
2022-08-25T08:12:57.669Z,98682.13
2022-08-25T08:14:02.748Z,98674.50
2022-08-25T08:15:10.274Z,98675.25
2022-08-25T08:16:17.606Z,98676.53
2022-08-25T08:17:22.240Z,98674.84
2022-08-25T08:18:26.399Z,98678.91
2022-08-25T08:19:30.552Z,98671.88
2022-08-25T08:20:42.525Z,98670.03
2022-08-25T08:21:48.931Z,98679.22
2022-08-25T08:22:57.384Z,98675.44
2022-08-25T08:24:00.948Z,98671.06
2022-08-25T08:25:06.428Z,98669.63
2022-08-25T08:26:13.661Z,98671.09
2022-08-25T08:27:17.937Z,98668.84
2022-08-25T08:28:21.918Z,98668.19
2022-08-25T08:29:26.137Z,98661.06
2022-08-25T08:30:29.215Z,98671.06
2022-08-25T08:31:34.881Z,98667.25
2022-08-25T08:33:08.118Z,98673.97
2022-08-25T08:34:04.562Z,98668.34
2022-08-25T08:35:08.549Z,98666.16
2022-08-25T08:36:13.430Z,98665.56
2022-08-25T08:37:17.650Z,98660.88
2022-08-25T08:38:22.238Z,98665.13
2022-08-25T08:39:32.000Z,98663.16
2022-08-25T08:40:42.421Z,98664.00
2022-08-25T08:42:16.927Z,98657.25
2022-08-25T08:43:21.640Z,98658.41
2022-08-25T08:44:34.268Z,98653.16
2022-08-25T08:45:43.828Z,98655.44
2022-08-25T08:46:56.562Z,98662.53
2022-08-25T08:48:10.711Z,98657.88
2022-08-25T08:49:26.763Z,98648.94
2022-08-25T08:50:39.229Z,98653.78
2022-08-25T08:51:48.097Z,98648.84
2022-08-25T08:52:57.593Z,98654.50
2022-08-25T08:54:06.468Z,98646.78
2022-08-25T08:55:27.087Z,98649.41
2022-08-25T08:56:37.232Z,98650.25
2022-08-25T08:57:45.913Z,98649.44
2022-08-25T08:58:52.540Z,98649.63
2022-08-25T09:00:00.657Z,98650.72
2022-08-25T09:01:04.945Z,98651.78
2022-08-25T09:02:15.994Z,98646.91
2022-08-25T09:03:42.360Z,98651.22
2022-08-25T09:04:49.278Z,98649.13
2022-08-25T09:05:55.981Z,98656.16
2022-08-25T09:06:59.880Z,98647.22
2022-08-25T09:08:08.821Z,98649.13
2022-08-25T09:09:26.060Z,98655.53
2022-08-25T09:10:34.077Z,98651.94
2022-08-25T09:11:52.891Z,98643.38
2022-08-25T09:13:05.747Z,98651.91
2022-08-25T09:14:35.501Z,98649.66
2022-08-25T09:16:03.540Z,98654.16
2022-08-25T09:17:17.681Z,98647.34
2022-08-25T09:18:25.960Z,98657.56
2022-08-25T09:19:41.917Z,98657.56
2022-08-25T09:20:59.766Z,98651.94
2022-08-25T09:22:33.420Z,98655.81
2022-08-25T09:23:43.078Z,98653.00
2022-08-25T09:24:53.670Z,98646.47
2022-08-25T09:26:04.132Z,98649.16
2022-08-25T09:27:12.968Z,98648.38
2022-08-25T09:28:20.729Z,98651.38
2022-08-25T09:29:26.670Z,98649.19
2022-08-25T09:30:44.368Z,98655.22
2022-08-25T09:31:51.009Z,98654.09
2022-08-25T09:33:05.111Z,98653.41
2022-08-25T09:34:13.931Z,98649.97
2022-08-25T09:35:22.002Z,98654.78
2022-08-25T09:36:25.178Z,98659.75
2022-08-25T09:37:29.572Z,98653.56
2022-08-25T09:38:33.829Z,98652.59
2022-08-25T09:39:37.259Z,98650.41
2022-08-25T09:40:43.117Z,98649.50
2022-08-25T09:41:51.474Z,98641.50
2022-08-25T09:42:57.957Z,98639.28
2022-08-25T09:44:01.744Z,98646.16
2022-08-25T09:45:06.486Z,98641.03
2022-08-25T09:46:16.052Z,98641.22
2022-08-25T09:47:24.235Z,98634.56
2022-08-25T09:48:39.823Z,98633.31
2022-08-25T09:49:47.241Z,98639.63
2022-08-25T09:50:51.638Z,98640.59
2022-08-25T09:51:56.974Z,98639.91
2022-08-25T09:53:18.742Z,98630.41
2022-08-25T09:54:33.937Z,98638.94
2022-08-25T09:55:59.915Z,98634.28
2022-08-25T09:57:08.559Z,98634.38
2022-08-25T09:58:20.502Z,98634.47
2022-08-25T09:59:34.590Z,98630.75
2022-08-25T10:00:39.413Z,98639.28
2022-08-25T10:01:49.259Z,98624.22
2022-08-25T10:03:24.762Z,98635.22
2022-08-25T10:04:32.354Z,98626.34
2022-08-25T10:05:39.100Z,98626.97
2022-08-25T10:06:46.289Z,98626.47
2022-08-25T10:07:53.298Z,98628.59
2022-08-25T10:09:01.134Z,98625.34
2022-08-25T10:10:09.997Z,98620.63
2022-08-25T10:11:31.482Z,98626.09
2022-08-25T10:12:42.848Z,98619.25
2022-08-25T10:13:47.987Z,98620.44
2022-08-25T10:14:54.551Z,98620.06
2022-08-25T10:16:05.076Z,98616.25
2022-08-25T10:17:29.538Z,98619.66
2022-08-25T10:18:33.291Z,98616.75
2022-08-25T10:19:39.140Z,98614.53
2022-08-25T10:20:44.860Z,98618.69
2022-08-25T10:22:06.247Z,98609.09
2022-08-25T10:23:13.381Z,98609.84
2022-08-25T10:24:17.948Z,98605.91
2022-08-25T10:25:28.271Z,98599.56
2022-08-25T10:26:37.651Z,98608.13
2022-08-25T10:27:48.452Z,98607.94
2022-08-25T10:29:05.163Z,98603.50
2022-08-25T10:30:17.163Z,98603.59
2022-08-25T10:31:22.893Z,98607.97
2022-08-25T10:32:32.463Z,98599.41
2022-08-25T10:33:41.688Z,98602.94
2022-08-25T10:34:51.637Z,98598.19
2022-08-25T10:36:01.758Z,98602.22
2022-08-25T10:37:15.271Z,98602.50
2022-08-25T10:38:36.126Z,98595.84
2022-08-25T10:39:42.869Z,98587.84
2022-08-25T10:40:49.969Z,98593.00
2022-08-25T10:42:01.717Z,98589.06
2022-08-25T10:43:09.412Z,98584.22
2022-08-25T10:44:37.651Z,98593.63
2022-08-25T10:45:48.121Z,98591.41
2022-08-25T10:46:55.859Z,98591.91
2022-08-25T10:48:16.882Z,98588.72
2022-08-25T10:49:23.067Z,98583.56
2022-08-25T10:50:33.283Z,98587.19
2022-08-25T10:51:46.041Z,98584.63
2022-08-25T10:53:10.780Z,98592.59
2022-08-25T10:54:25.762Z,98581.72
2022-08-25T10:55:33.633Z,98583.94
2022-08-25T10:56:47.910Z,98582.03
2022-08-25T10:58:00.786Z,98586.97
2022-08-25T10:59:37.240Z,98584.47
2022-08-25T11:00:48.174Z,98582.53
2022-08-25T11:02:15.529Z,98580.78
2022-08-25T11:03:30.216Z,98583.16
2022-08-25T11:04:42.173Z,98585.75
2022-08-25T11:05:49.275Z,98581.22
2022-08-25T11:06:58.490Z,98582.84
2022-08-25T11:08:11.494Z,98571.69
2022-08-25T11:09:21.551Z,98580.31
2022-08-25T11:10:29.233Z,98574.00
2022-08-25T11:11:36.223Z,98572.75
2022-08-25T11:12:43.739Z,98562.47
2022-08-25T11:13:50.638Z,98570.47
2022-08-25T11:14:57.880Z,98571.59
2022-08-25T11:16:16.973Z,98573.28
2022-08-25T11:17:26.032Z,98562.88
2022-08-25T11:18:32.084Z,98563.38
2022-08-25T11:19:38.289Z,98567.00
2022-08-25T11:20:44.806Z,98568.38
2022-08-25T11:21:55.689Z,98571.06
2022-08-25T11:23:09.010Z,98567.63
2022-08-25T11:24:36.092Z,98559.94
2022-08-25T11:25:44.374Z,98568.22
2022-08-25T11:26:51.510Z,98566.22
2022-08-25T11:27:59.120Z,98559.97
2022-08-25T11:29:11.344Z,98563.03
2022-08-25T11:30:18.821Z,98561.97
2022-08-25T11:31:22.447Z,98558.13
2022-08-25T11:32:27.324Z,98556.81
2022-08-25T11:33:32.594Z,98554.94
2022-08-25T11:34:40.124Z,98557.44
2022-08-25T11:35:51.909Z,98552.59
2022-08-25T11:37:01.378Z,98553.72
2022-08-25T11:38:19.708Z,98562.25
2022-08-25T11:39:35.938Z,98552.72
2022-08-25T11:40:45.968Z,98551.78
2022-08-25T11:42:01.023Z,98549.66
2022-08-25T11:43:13.602Z,98550.19
2022-08-25T11:44:34.418Z,98542.59
2022-08-25T11:45:55.195Z,98548.69
2022-08-25T11:47:17.546Z,98546.34
2022-08-25T11:48:32.512Z,98543.09
2022-08-25T11:49:50.765Z,98538.25
2022-08-25T11:51:02.294Z,98539.44
2022-08-25T11:52:31.435Z,98530.94
2022-08-25T11:53:37.665Z,98535.25
2022-08-25T11:54:45.188Z,98534.13
2022-08-25T11:55:52.070Z,98531.88
2022-08-25T11:57:00.548Z,98528.53
2022-08-25T11:58:32.360Z,98523.56
2022-08-25T12:00:09.924Z,98525.16
2022-08-25T12:01:53.631Z,98532.56
2022-08-25T12:03:00.904Z,98533.56
2022-08-25T12:04:15.108Z,98523.00
2022-08-25T12:05:54.260Z,98529.66
2022-08-25T12:07:20.350Z,98517.44
2022-08-25T12:09:04.080Z,98516.34
2022-08-25T12:10:21.686Z,98521.53
2022-08-25T12:11:49.868Z,98518.44
2022-08-25T12:13:23.421Z,98523.47
2022-08-25T12:14:54.157Z,98517.53
2022-08-25T12:16:00.680Z,98517.53
2022-08-25T12:17:19.088Z,98514.81
2022-08-25T12:18:45.636Z,98511.94
2022-08-25T12:19:53.418Z,98509.47
2022-08-25T12:21:15.959Z,98509.97
2022-08-25T12:22:55.464Z,98509.81
2022-08-25T12:24:15.698Z,98502.56
2022-08-25T12:25:45.520Z,98496.03
2022-08-25T12:26:57.746Z,98504.03
2022-08-25T12:28:09.294Z,98507.59
2022-08-25T12:29:16.431Z,98509.13
2022-08-25T12:30:21.563Z,98507.19
2022-08-25T12:31:34.943Z,98502.34
2022-08-25T12:32:58.489Z,98499.47
2022-08-25T12:34:15.408Z,98496.13
2022-08-25T12:35:29.922Z,98500.31
2022-08-25T12:36:36.072Z,98498.75
2022-08-25T12:39:24.236Z,98500.66
2022-08-25T12:40:33.752Z,98503.88
2022-08-25T12:41:38.242Z,98498.75
2022-08-25T12:42:44.281Z,98492.78
2022-08-25T12:43:48.799Z,98498.38
2022-08-25T12:45:25.725Z,98502.97
2022-08-25T12:46:38.906Z,98489.91
2022-08-25T12:47:44.773Z,98487.94
2022-08-25T12:48:59.153Z,98492.72
2022-08-25T12:50:29.671Z,98499.59
2022-08-25T12:51:58.988Z,98501.09
2022-08-25T12:53:11.529Z,98493.69
2022-08-25T12:54:22.752Z,98491.81
2022-08-25T12:55:26.999Z,98498.88
2022-08-25T12:56:37.462Z,98493.56
2022-08-25T12:57:43.958Z,98498.41
2022-08-25T12:59:00.346Z,98490.69
2022-08-25T13:00:18.415Z,98488.28
2022-08-25T13:01:35.437Z,98497.75
2022-08-25T13:03:13.451Z,98491.63
2022-08-25T13:04:41.626Z,98492.59
2022-08-25T13:06:18.662Z,98489.25
2022-08-25T13:07:34.846Z,98480.25
2022-08-25T13:09:00.675Z,98490.41
2022-08-25T13:10:23.549Z,98483.81
2022-08-25T13:11:35.290Z,98494.22
2022-08-25T13:12:43.733Z,98487.03
2022-08-25T13:13:52.354Z,98487.31
2022-08-25T13:14:56.817Z,98491.03
2022-08-25T13:16:02.616Z,98487.97
2022-08-25T13:17:06.328Z,98489.56
2022-08-25T13:18:31.595Z,98483.78
2022-08-25T13:19:36.912Z,98484.56
2022-08-25T13:20:40.169Z,98481.97
2022-08-25T13:21:49.803Z,98470.97
2022-08-25T13:22:58.270Z,98475.00
2022-08-25T13:25:32.198Z,98484.53
2022-08-25T13:26:48.022Z,98477.47
2022-08-25T13:27:53.941Z,98479.41
2022-08-25T13:29:02.925Z,98482.66
2022-08-25T13:30:25.208Z,98474.97
2022-08-25T13:31:30.775Z,98480.75
2022-08-25T13:32:35.901Z,98476.56
2022-08-25T13:33:40.149Z,98478.00
2022-08-25T13:34:43.925Z,98477.50
2022-08-25T13:35:52.182Z,98476.75
2022-08-25T13:37:13.929Z,98474.19
2022-08-25T13:38:20.166Z,98474.84
2022-08-25T13:39:52.800Z,98477.84
2022-08-25T13:40:52.086Z,98477.34
2022-08-25T13:41:58.141Z,98476.88
2022-08-25T13:43:12.226Z,98477.22
2022-08-25T13:44:17.828Z,98472.22
2022-08-25T13:45:23.839Z,98469.03
2022-08-25T13:46:28.211Z,98473.69
2022-08-25T13:47:43.842Z,98470.28
2022-08-25T13:48:50.060Z,98467.38
2022-08-25T13:49:56.617Z,98468.81
2022-08-25T13:51:11.534Z,98464.34
2022-08-25T13:52:20.981Z,98465.00
2022-08-25T13:53:31.647Z,98465.63
2022-08-25T13:54:41.092Z,98475.41
2022-08-25T13:55:52.650Z,98466.25
2022-08-25T13:57:05.830Z,98464.19
2022-08-25T13:58:16.122Z,98463.28
2022-08-25T13:59:34.318Z,98468.53
2022-08-25T14:00:47.277Z,98468.09
2022-08-25T14:01:54.418Z,98461.00
2022-08-25T14:02:58.663Z,98457.13
2022-08-25T14:04:22.081Z,98468.72
2022-08-25T14:05:41.413Z,98464.84
2022-08-25T14:06:45.456Z,98455.06
2022-08-25T14:08:09.178Z,98457.16
2022-08-25T14:09:25.939Z,98456.03
2022-08-25T14:10:36.974Z,98456.19
2022-08-25T14:11:46.709Z,98453.13
2022-08-25T14:13:09.661Z,98456.03
2022-08-25T14:14:15.559Z,98458.44
2022-08-25T14:15:33.453Z,98446.88
2022-08-25T14:16:43.459Z,98445.44
2022-08-25T14:17:51.452Z,98450.25
2022-08-25T14:18:58.884Z,98448.63
2022-08-25T14:20:05.308Z,98443.31
2022-08-25T14:21:12.225Z,98445.41
2022-08-25T14:22:16.298Z,98439.47
2022-08-25T14:23:21.220Z,98441.22
2022-08-25T14:24:26.009Z,98448.13
2022-08-25T14:25:30.362Z,98447.66
2022-08-25T14:26:34.718Z,98440.78
2022-08-25T14:28:03.731Z,98442.69
2022-08-25T14:29:08.194Z,98438.34
2022-08-25T14:30:13.897Z,98434.47
2022-08-25T14:31:21.349Z,98437.22
2022-08-25T14:32:25.576Z,98430.94
2022-08-25T14:33:33.723Z,98430.66
2022-08-25T14:34:39.523Z,98433.22